Albemarle, North Carolina
Current Conditions -  °F | °C
As of 8:55 AM on Wednesday 28 Jan 2015 (Local Time) from KVUJ Reporting Station
Clear Clear  
Wind Chill: -3°   Ceiling: Unl
Heat Index:   Visibility: 10mi
Dew Point: -8°   Wind: 6mph
Humidity: 56%   Direction: 330°NNW
Pressure: 30.28"   Gusts: NA
Location:  35.35°N, 80.19°W
Report Text: KVUJ 281355Z AUTO 33005KT 10SM CLR 00/M08 A3028 RMK AO2 T10031081
Loading
Personal Weather Stations






























Interactive Weather Map New forecast layout! Learn more

10-Day Weather Forecast

Advertisements
Track Severe Weather on mobile